createdAt,value
2023-04-29T00:02:56.913Z,12.52
2023-04-29T00:05:59.406Z,12.42
2023-04-29T00:09:01.036Z,12.43
2023-04-29T00:12:02.584Z,12.41
2023-04-29T00:15:04.685Z,12.42
2023-04-29T00:18:06.183Z,12.36
2023-04-29T00:21:07.711Z,12.29
2023-04-29T00:24:09.175Z,12.30
2023-04-29T00:27:11.894Z,12.28
2023-04-29T00:30:13.683Z,12.25
2023-04-29T00:33:15.410Z,12.24
2023-04-29T00:36:17.016Z,12.21
2023-04-29T00:39:18.927Z,12.19
2023-04-29T00:42:20.819Z,12.23
2023-04-29T00:45:22.305Z,12.23
2023-04-29T00:48:23.895Z,12.21
2023-04-29T00:51:25.610Z,12.19
2023-04-29T00:54:27.583Z,12.13
2023-04-29T00:57:30.078Z,12.02
2023-04-29T01:00:32.441Z,12.07
2023-04-29T01:03:34.146Z,12.06
2023-04-29T01:07:01.450Z,12.07
2023-04-29T01:10:22.660Z,12.11
2023-04-29T01:13:31.017Z,12.15
2023-04-29T01:16:45.120Z,12.12
2023-04-29T01:19:53.176Z,12.04
2023-04-29T01:22:56.329Z,12.02
2023-04-29T01:25:59.015Z,11.99
2023-04-29T01:29:50.699Z,11.97
2023-04-29T01:33:01.428Z,11.90
2023-04-29T01:36:05.758Z,11.81
2023-04-29T01:39:20.715Z,11.78
2023-04-29T01:42:34.192Z,11.83
2023-04-29T01:45:42.274Z,11.87
2023-04-29T01:48:44.109Z,11.83
2023-04-29T01:51:45.566Z,11.78
2023-04-29T01:54:47.290Z,11.78
2023-04-29T01:57:49.078Z,11.82
2023-04-29T02:01:17.130Z,11.81
2023-04-29T02:04:19.149Z,11.84
2023-04-29T02:07:21.130Z,11.79
2023-04-29T02:10:23.145Z,11.81
2023-04-29T02:13:30.288Z,11.83
2023-04-29T02:16:31.773Z,11.84
2023-04-29T02:19:37.001Z,11.85
2023-04-29T02:22:39.144Z,11.89
2023-04-29T02:25:40.650Z,11.91
2023-04-29T02:28:42.434Z,11.95
2023-04-29T02:31:43.953Z,11.95
2023-04-29T02:34:46.027Z,11.94
2023-04-29T02:37:47.430Z,11.94
2023-04-29T02:40:50.183Z,11.89
2023-04-29T02:43:51.887Z,11.83
2023-04-29T02:46:53.494Z,11.82
2023-04-29T02:49:54.968Z,11.86
2023-04-29T02:52:56.561Z,11.90
2023-04-29T02:55:58.172Z,11.88
2023-04-29T02:58:59.696Z,11.86
2023-04-29T03:02:02.088Z,11.82
2023-04-29T03:05:04.562Z,11.78
2023-04-29T03:08:06.144Z,11.75
2023-04-29T03:11:07.874Z,11.80
2023-04-29T03:14:10.294Z,11.77
2023-04-29T03:17:12.221Z,11.69
2023-04-29T03:20:14.064Z,11.66
2023-04-29T03:23:15.576Z,11.66
2023-04-29T03:26:18.242Z,11.65
2023-04-29T03:29:20.068Z,11.60
2023-04-29T03:32:21.537Z,11.53
2023-04-29T03:35:23.108Z,11.54
2023-04-29T03:38:44.972Z,11.54
2023-04-29T03:41:47.625Z,11.51
2023-04-29T03:44:50.055Z,11.49
2023-04-29T03:47:52.334Z,11.50
2023-04-29T03:50:54.209Z,11.53
2023-04-29T03:53:57.718Z,11.52
2023-04-29T03:57:00.312Z,11.54
2023-04-29T04:00:01.920Z,11.58
2023-04-29T04:03:05.724Z,11.65
2023-04-29T04:06:09.113Z,11.74
2023-04-29T04:09:11.041Z,11.82
2023-04-29T04:12:12.553Z,11.86
2023-04-29T04:15:14.596Z,11.85
2023-04-29T04:18:16.213Z,11.83
2023-04-29T04:21:17.767Z,11.75
2023-04-29T04:24:25.873Z,11.66
2023-04-29T04:27:27.916Z,11.60
2023-04-29T04:30:31.854Z,11.52
2023-04-29T04:33:34.511Z,11.51
2023-04-29T04:36:36.822Z,11.63
2023-04-29T04:39:39.078Z,11.66
2023-04-29T04:42:41.188Z,11.65
2023-04-29T04:45:46.930Z,11.61
2023-04-29T04:48:48.852Z,11.56
2023-04-29T04:51:51.582Z,11.57
2023-04-29T04:54:53.257Z,11.68
2023-04-29T04:57:58.599Z,11.88
2023-04-29T05:01:00.870Z,11.98
2023-04-29T05:04:03.846Z,12.15
2023-04-29T05:07:05.848Z,12.30
2023-04-29T05:10:26.322Z,12.37
2023-04-29T05:13:29.826Z,12.42
2023-04-29T05:16:31.508Z,12.59
2023-04-29T05:19:33.282Z,12.75
2023-04-29T05:22:35.370Z,12.93
2023-04-29T05:25:37.078Z,13.03
2023-04-29T05:28:38.751Z,13.01
2023-04-29T05:31:42.736Z,12.99
2023-04-29T05:34:44.841Z,12.99
2023-04-29T05:37:46.617Z,13.04
2023-04-29T05:41:11.086Z,13.12
2023-04-29T05:44:12.726Z,13.21
2023-04-29T05:47:14.221Z,13.33
2023-04-29T05:50:16.451Z,13.45
2023-04-29T05:53:17.995Z,13.55
2023-04-29T05:56:20.026Z,13.61
2023-04-29T05:59:21.467Z,13.84
2023-04-29T06:02:27.935Z,14.13
2023-04-29T06:05:30.782Z,14.14
2023-04-29T06:08:44.328Z,13.95
2023-04-29T06:11:51.684Z,14.00
2023-04-29T06:14:55.863Z,14.16
2023-04-29T06:17:57.489Z,14.41
2023-04-29T06:20:58.973Z,14.77
2023-04-29T06:24:00.566Z,14.93
2023-04-29T06:27:04.185Z,14.65
2023-04-29T06:30:07.223Z,14.51
2023-04-29T06:33:09.341Z,14.54
2023-04-29T06:36:11.081Z,14.35
2023-04-29T06:39:18.321Z,14.05
2023-04-29T06:42:58.320Z,14.05
2023-04-29T06:46:21.379Z,14.11
2023-04-29T06:49:36.361Z,14.01
2023-04-29T06:52:37.877Z,13.93
2023-04-29T06:55:39.342Z,14.03
2023-04-29T06:58:40.788Z,14.19
2023-04-29T07:01:44.445Z,14.43
2023-04-29T07:04:46.828Z,14.52
2023-04-29T07:07:50.799Z,14.51
2023-04-29T07:10:57.603Z,14.41
2023-04-29T07:13:59.110Z,14.32
2023-04-29T07:17:05.008Z,14.26
2023-04-29T07:20:07.658Z,14.24
2023-04-29T07:23:09.355Z,14.34
2023-04-29T07:26:18.496Z,14.46
2023-04-29T07:29:20.721Z,14.45
2023-04-29T07:32:22.630Z,14.53
2023-04-29T07:35:24.240Z,14.58
2023-04-29T07:38:26.288Z,14.88
2023-04-29T07:41:28.682Z,15.33
2023-04-29T07:44:30.384Z,15.67
2023-04-29T07:47:32.030Z,15.64
2023-04-29T07:50:36.857Z,15.48
2023-04-29T07:53:38.318Z,15.40
2023-04-29T07:56:39.859Z,15.33
2023-04-29T07:59:42.489Z,15.19
2023-04-29T08:02:44.825Z,15.13
2023-04-29T08:05:51.208Z,15.10
2023-04-29T08:08:52.930Z,15.15
2023-04-29T08:11:54.451Z,15.30
2023-04-29T08:14:55.947Z,15.41
2023-04-29T08:17:57.537Z,15.58
2023-04-29T08:20:59.082Z,15.80
2023-04-29T08:24:00.764Z,15.72
2023-04-29T08:27:03.493Z,15.72
2023-04-29T08:30:06.150Z,15.83
2023-04-29T08:33:08.436Z,15.79
2023-04-29T08:36:10.013Z,16.09
2023-04-29T08:39:11.418Z,16.47
2023-04-29T08:42:13.294Z,16.79
2023-04-29T08:45:17.325Z,16.53
2023-04-29T08:48:19.556Z,16.41
2023-04-29T08:51:21.201Z,16.39
2023-04-29T08:54:22.685Z,16.39
2023-04-29T08:57:26.318Z,16.27
2023-04-29T09:00:28.229Z,16.17
2023-04-29T09:03:34.688Z,16.27
2023-04-29T09:06:36.342Z,16.62
2023-04-29T09:09:39.830Z,16.73
2023-04-29T09:12:41.388Z,16.97
2023-04-29T09:15:42.859Z,16.98
2023-04-29T09:18:49.502Z,17.16
2023-04-29T09:21:57.154Z,17.47
2023-04-29T09:25:12.785Z,17.36
2023-04-29T09:28:17.489Z,17.19
2023-04-29T09:31:27.776Z,17.04
2023-04-29T09:34:35.608Z,17.22
2023-04-29T09:37:37.197Z,17.56
2023-04-29T09:40:56.791Z,17.85
2023-04-29T09:44:07.229Z,17.54
2023-04-29T09:47:09.982Z,17.31
2023-04-29T09:50:13.968Z,17.27
2023-04-29T09:53:27.963Z,17.51
2023-04-29T09:56:48.869Z,17.99
2023-04-29T09:59:50.675Z,17.95
2023-04-29T10:02:54.385Z,18.00
2023-04-29T10:05:57.062Z,18.12
2023-04-29T10:08:58.926Z,18.27
2023-04-29T10:12:02.116Z,18.17
2023-04-29T10:15:12.265Z,18.09
2023-04-29T10:18:30.165Z,18.34
2023-04-29T10:21:32.134Z,18.40
2023-04-29T10:24:37.672Z,18.53
2023-04-29T10:27:39.981Z,18.92
2023-04-29T10:30:44.399Z,18.55
2023-04-29T10:33:47.900Z,18.34
2023-04-29T10:36:50.041Z,18.41
2023-04-29T10:40:25.074Z,19.20
2023-04-29T10:43:27.207Z,19.65
2023-04-29T10:46:28.831Z,20.30
2023-04-29T10:49:36.394Z,20.24
2023-04-29T10:52:54.734Z,19.51
2023-04-29T10:56:05.274Z,19.02
2023-04-29T10:59:11.859Z,19.14
2023-04-29T11:02:15.134Z,19.27
2023-04-29T11:05:29.472Z,19.53
2023-04-29T11:08:32.843Z,19.95
2023-04-29T11:12:08.933Z,19.62
2023-04-29T11:15:11.522Z,19.24
2023-04-29T11:18:13.257Z,19.10
2023-04-29T11:21:15.249Z,18.85
2023-04-29T11:24:17.434Z,19.13
2023-04-29T11:27:20.384Z,19.75
2023-04-29T11:30:22.307Z,19.84
2023-04-29T11:33:25.199Z,20.30
2023-04-29T11:36:30.114Z,20.71
2023-04-29T11:39:36.189Z,20.55
2023-04-29T11:43:04.566Z,20.52
2023-04-29T11:46:14.896Z,20.88
2023-04-29T11:49:16.414Z,20.79
2023-04-29T11:52:17.905Z,20.55
2023-04-29T11:55:19.828Z,20.70
2023-04-29T11:58:22.756Z,20.40
2023-04-29T12:01:26.775Z,19.81
2023-04-29T12:04:28.424Z,19.91
2023-04-29T12:07:29.970Z,20.29
2023-04-29T12:10:32.410Z,20.43
2023-04-29T12:13:38.213Z,19.98
2023-04-29T12:16:40.411Z,20.02
2023-04-29T12:19:44.083Z,20.28
2023-04-29T12:22:45.741Z,20.53
2023-04-29T12:25:51.765Z,20.91
2023-04-29T12:28:59.130Z,21.51
2023-04-29T12:32:00.860Z,21.47
2023-04-29T12:35:02.587Z,21.01
2023-04-29T12:38:04.139Z,21.44
2023-04-29T12:41:07.820Z,21.46
2023-04-29T12:44:12.067Z,20.48
2023-04-29T12:47:14.513Z,20.07
2023-04-29T12:50:16.095Z,20.13
2023-04-29T12:53:17.680Z,20.78
2023-04-29T12:56:19.183Z,21.06
2023-04-29T12:59:21.185Z,21.21
2023-04-29T13:02:22.902Z,20.76
2023-04-29T13:05:24.505Z,20.36
2023-04-29T13:08:26.199Z,20.16
2023-04-29T13:11:32.446Z,20.25
2023-04-29T13:14:36.142Z,20.23
2023-04-29T13:17:37.791Z,20.28
2023-04-29T13:20:42.056Z,20.39
2023-04-29T13:23:44.062Z,20.28
2023-04-29T13:26:46.120Z,20.38
2023-04-29T13:29:48.170Z,20.23
2023-04-29T13:32:55.167Z,20.32
2023-04-29T13:35:58.119Z,20.96
2023-04-29T13:38:59.881Z,21.59
2023-04-29T13:42:01.865Z,21.46
2023-04-29T13:45:03.963Z,21.11
2023-04-29T13:48:12.013Z,20.95
2023-04-29T13:58:29.997Z,20.62
2023-04-29T14:03:54.097Z,20.57
2023-04-29T14:06:56.174Z,20.79
2023-04-29T14:09:57.822Z,21.07
2023-04-29T14:12:59.439Z,20.45
2023-04-29T14:16:03.496Z,19.67
2023-04-29T14:19:05.290Z,19.74
2023-04-29T14:22:06.820Z,20.32
2023-04-29T14:25:08.751Z,20.59
2023-04-29T14:28:11.361Z,20.53
2023-04-29T14:31:13.844Z,20.47
2023-04-29T14:34:15.640Z,20.50
2023-04-29T14:37:17.147Z,20.29
2023-04-29T14:40:18.643Z,20.28
2023-04-29T14:43:20.129Z,20.31
2023-04-29T14:46:22.483Z,20.44
2023-04-29T14:49:24.087Z,20.59
2023-04-29T14:52:25.675Z,20.76
2023-04-29T14:55:28.219Z,20.96
2023-04-29T14:58:31.041Z,20.86
2023-04-29T15:01:32.648Z,20.15
2023-04-29T15:04:34.461Z,19.76
2023-04-29T15:07:36.045Z,19.99
2023-04-29T15:10:37.504Z,19.64
2023-04-29T15:13:39.202Z,19.97
2023-04-29T15:16:40.729Z,20.44
2023-04-29T15:19:42.251Z,20.20
2023-04-29T15:22:43.742Z,20.24
2023-04-29T15:25:45.650Z,20.39
2023-04-29T15:28:47.233Z,21.11
2023-04-29T15:31:49.053Z,21.44
2023-04-29T15:34:50.784Z,21.55
2023-04-29T15:37:52.273Z,21.60
2023-04-29T15:40:59.133Z,21.46
2023-04-29T15:44:00.569Z,21.84
2023-04-29T15:47:02.090Z,21.85
2023-04-29T15:50:03.868Z,22.10
2023-04-29T15:53:05.360Z,21.75
2023-04-29T15:56:07.071Z,21.69
2023-04-29T15:59:08.497Z,21.60
2023-04-29T16:02:11.642Z,21.20
2023-04-29T16:05:13.098Z,20.79
2023-04-29T16:08:14.556Z,20.90
2023-04-29T16:11:16.095Z,21.49
2023-04-29T16:14:17.511Z,22.87
2023-04-29T16:17:19.567Z,23.51
2023-04-29T16:20:21.005Z,24.92
2023-04-29T16:23:22.455Z,25.58
2023-04-29T16:26:24.893Z,27.24
2023-04-29T16:29:26.413Z,25.62
2023-04-29T16:32:29.076Z,22.43
2023-04-29T16:35:31.084Z,20.39
2023-04-29T16:38:32.685Z,19.51
2023-04-29T16:41:34.289Z,19.11
2023-04-29T16:44:35.872Z,19.22
2023-04-29T16:47:37.714Z,19.63
2023-04-29T16:50:39.299Z,19.73
2023-04-29T16:53:40.795Z,19.25
2023-04-29T16:56:42.315Z,19.03
2023-04-29T16:59:43.809Z,19.02
2023-04-29T17:02:46.726Z,18.53
2023-04-29T17:05:49.456Z,18.06
2023-04-29T17:08:51.836Z,17.51
2023-04-29T17:11:53.502Z,17.40
2023-04-29T17:14:55.079Z,17.40
2023-04-29T17:17:56.729Z,17.77
2023-04-29T17:20:59.211Z,17.88
2023-04-29T17:24:00.854Z,17.87
2023-04-29T17:27:02.308Z,17.87
2023-04-29T17:30:05.196Z,17.59
2023-04-29T17:33:06.857Z,17.27
2023-04-29T17:36:08.369Z,16.75
2023-04-29T17:39:11.522Z,16.75
2023-04-29T17:42:13.046Z,16.46
2023-04-29T17:45:14.750Z,16.15
2023-04-29T17:48:18.485Z,15.88
2023-04-29T17:51:19.987Z,15.91
2023-04-29T17:54:21.544Z,15.92
2023-04-29T17:57:23.013Z,15.61
2023-04-29T18:00:24.604Z,15.33
2023-04-29T18:03:27.374Z,15.19
2023-04-29T18:06:30.272Z,15.13
2023-04-29T18:09:32.240Z,15.11
2023-04-29T18:12:33.789Z,15.21
2023-04-29T18:15:35.897Z,15.20
2023-04-29T18:18:37.412Z,15.00
2023-04-29T18:21:39.416Z,14.82
2023-04-29T18:24:40.932Z,14.80
2023-04-29T18:27:42.456Z,14.72
2023-04-29T18:30:45.976Z,14.63
2023-04-29T18:33:47.491Z,14.56
2023-04-29T18:36:49.021Z,14.53
2023-04-29T18:39:50.499Z,14.38
2023-04-29T18:42:52.125Z,14.52
2023-04-29T18:45:58.483Z,14.56
2023-04-29T18:48:59.966Z,14.59
2023-04-29T18:52:01.457Z,14.49
2023-04-29T18:55:03.154Z,14.49
2023-04-29T18:58:04.816Z,14.46
2023-04-29T19:01:06.433Z,14.36
2023-04-29T19:04:09.948Z,14.37
2023-04-29T19:07:11.995Z,14.35
2023-04-29T19:10:13.507Z,14.23
2023-04-29T19:13:16.097Z,14.19
2023-04-29T19:16:17.732Z,14.05
2023-04-29T19:19:19.202Z,14.05
2023-04-29T19:22:20.963Z,13.92
2023-04-29T19:25:22.586Z,13.73
2023-04-29T19:28:24.238Z,13.79
2023-04-29T19:31:26.004Z,13.77
2023-04-29T19:34:27.665Z,13.67
2023-04-29T19:37:29.352Z,13.61
2023-04-29T19:40:30.848Z,13.61
2023-04-29T19:43:32.488Z,13.63
2023-04-29T19:46:34.058Z,13.63
2023-04-29T19:49:37.229Z,13.61
2023-04-29T19:52:38.750Z,13.42
2023-04-29T19:55:40.392Z,13.39
2023-04-29T19:58:41.822Z,13.45
2023-04-29T20:01:43.386Z,13.35
2023-04-29T20:04:44.994Z,13.37
2023-04-29T20:07:46.586Z,13.41
2023-04-29T20:10:48.401Z,13.42
2023-04-29T20:13:50.213Z,13.40
2023-04-29T20:16:52.966Z,13.37
2023-04-29T20:19:54.756Z,13.36
2023-04-29T20:23:00.054Z,13.32
2023-04-29T20:26:01.591Z,13.26
2023-04-29T20:29:03.484Z,13.21
2023-04-29T20:32:06.057Z,13.15
2023-04-29T20:35:08.216Z,13.04
2023-04-29T20:38:09.907Z,13.04
2023-04-29T20:41:11.459Z,13.00
2023-04-29T20:44:12.984Z,12.94
2023-04-29T20:47:15.156Z,12.80
2023-04-29T20:50:17.006Z,12.79
2023-04-29T20:53:18.612Z,12.78
2023-04-29T20:56:20.168Z,12.79
2023-04-29T20:59:21.633Z,12.73
2023-04-29T21:02:23.070Z,12.73
2023-04-29T21:05:24.776Z,12.68
2023-04-29T21:08:26.384Z,12.64
2023-04-29T21:11:27.838Z,12.59
2023-04-29T21:14:29.267Z,12.40
2023-04-29T21:17:31.122Z,12.25
2023-04-29T21:20:32.629Z,12.04
2023-04-29T21:23:34.185Z,11.89
2023-04-29T21:26:35.768Z,11.87
2023-04-29T21:29:40.782Z,11.80
2023-04-29T21:32:42.464Z,11.79
2023-04-29T21:35:47.864Z,11.69
2023-04-29T21:38:51.935Z,11.61
2023-04-29T21:41:53.939Z,11.60
2023-04-29T21:44:58.415Z,11.61
2023-04-29T21:48:10.332Z,11.64
2023-04-29T21:51:11.912Z,11.64
2023-04-29T21:54:13.406Z,11.70
2023-04-29T21:57:15.023Z,11.72
2023-04-29T22:00:32.629Z,11.74
2023-04-29T22:03:34.922Z,11.71
2023-04-29T22:06:36.759Z,11.75
2023-04-29T22:09:38.196Z,11.75
2023-04-29T22:12:39.650Z,11.79
2023-04-29T22:15:41.596Z,11.75
2023-04-29T22:18:43.090Z,11.69
2023-04-29T22:21:44.560Z,11.71
2023-04-29T22:24:46.067Z,11.81
2023-04-29T22:27:48.175Z,11.87
2023-04-29T22:30:49.702Z,11.90
2023-04-29T22:33:51.266Z,11.92
2023-04-29T22:36:52.975Z,11.95
2023-04-29T22:39:54.930Z,11.96
2023-04-29T22:42:56.801Z,12.00
2023-04-29T22:45:58.273Z,12.08
2023-04-29T22:48:59.832Z,12.06
2023-04-29T22:52:01.386Z,12.00
2023-04-29T22:55:02.857Z,12.03
2023-04-29T22:58:04.565Z,12.04
2023-04-29T23:01:06.088Z,12.01
2023-04-29T23:04:07.607Z,11.94
2023-04-29T23:07:09.061Z,11.95
2023-04-29T23:10:10.639Z,11.99
2023-04-29T23:13:12.844Z,11.97
2023-04-29T23:16:14.313Z,11.97
2023-04-29T23:19:16.341Z,11.98
2023-04-29T23:22:17.967Z,12.01
2023-04-29T23:25:19.755Z,12.05
2023-04-29T23:28:21.229Z,12.07
2023-04-29T23:31:22.972Z,12.04
2023-04-29T23:34:24.525Z,12.04
2023-04-29T23:37:26.213Z,12.05
2023-04-29T23:40:27.692Z,12.05
2023-04-29T23:43:29.150Z,12.02
2023-04-29T23:46:30.854Z,11.91
2023-04-29T23:49:32.675Z,11.80
2023-04-29T23:52:34.177Z,11.66
2023-04-29T23:55:35.770Z,11.51
2023-04-29T23:58:37.226Z,11.37
